Valleyview, Ohio
Current Conditions -  °F | °C
As of 6:47 PM on Tuesday 25 Nov 2014 (Local Time) from KTZR Reporting Station
Overcast Overcast  
Wind Chill: 26°   Ceiling: 3400
Heat Index: 34°   Visibility: 10mi
Dew Point: 28°   Wind: 10mph
Humidity: 81%   Direction: 250°WSW
Pressure: 30.16"   Gusts: NA
Location:  39.9614°N, 83.083°W
Report Text: KTZR 252347Z 25009KT 10SM SCT019 OVC034 01/M02 A3016
Loading
Personal Weather Stations






























Interactive Weather Map New forecast layout! Learn more

10-Day Weather Forecast

Advertisements
Track Severe Weather on mobile